sensor_id;sensor_type;location;lat;lon;timestamp;temperature;humidity
21275;DHT22;36472;52.170;20.884;2023-04-15T00:01:27;29.50;40.00
21275;DHT22;36472;52.170;20.884;2023-04-15T00:04:00;29.50;40.00
21275;DHT22;36472;52.170;20.884;2023-04-15T00:06:29;29.50;40.00
21275;DHT22;36472;52.170;20.884;2023-04-15T00:08:59;29.50;40.00
21275;DHT22;36472;52.170;20.884;2023-04-15T00:11:28;29.60;40.40
21275;DHT22;36472;52.170;20.884;2023-04-15T00:13:57;29.70;40.50
21275;DHT22;36472;52.170;20.884;2023-04-15T00:16:27;29.70;40.80
21275;DHT22;36472;52.170;20.884;2023-04-15T00:18:56;29.60;41.00
21275;DHT22;36472;52.170;20.884;2023-04-15T00:21:25;29.70;41.00
21275;DHT22;36472;52.170;20.884;2023-04-15T00:23:55;29.60;41.70
21275;DHT22;36472;52.170;20.884;2023-04-15T00:26:25;29.70;40.90
21275;DHT22;36472;52.170;20.884;2023-04-15T00:28:55;29.60;41.00
21275;DHT22;36472;52.170;20.884;2023-04-15T00:31:24;29.60;41.10
21275;DHT22;36472;52.170;20.884;2023-04-15T00:33:54;29.60;41.50
21275;DHT22;36472;52.170;20.884;2023-04-15T00:36:23;29.60;41.90
21275;DHT22;36472;52.170;20.884;2023-04-15T00:38:52;29.40;41.90
21275;DHT22;36472;52.170;20.884;2023-04-15T00:41:21;29.50;42.30
21275;DHT22;36472;52.170;20.884;2023-04-15T00:43:52;29.50;42.00
21275;DHT22;36472;52.170;20.884;2023-04-15T00:46:21;29.40;42.00
21275;DHT22;36472;52.170;20.884;2023-04-15T00:48:51;29.30;42.00
21275;DHT22;36472;52.170;20.884;2023-04-15T00:51:21;29.30;42.40
21275;DHT22;36472;52.170;20.884;2023-04-15T00:53:51;29.20;42.40
21275;DHT22;36472;52.170;20.884;2023-04-15T00:56:20;29.20;42.80
21275;DHT22;36472;52.170;20.884;2023-04-15T00:58:52;29.00;43.00
21275;DHT22;36472;52.170;20.884;2023-04-15T01:01:21;29.00;43.10
21275;DHT22;36472;52.170;20.884;2023-04-15T01:03:53;29.10;43.20
21275;DHT22;36472;52.170;20.884;2023-04-15T01:06:24;29.10;43.00
21275;DHT22;36472;52.170;20.884;2023-04-15T01:08:54;29.10;42.70
21275;DHT22;36472;52.170;20.884;2023-04-15T01:11:25;29.20;42.70
21275;DHT22;36472;52.170;20.884;2023-04-15T01:13:57;29.30;42.60
21275;DHT22;36472;52.170;20.884;2023-04-15T01:16:27;29.20;42.40
21275;DHT22;36472;52.170;20.884;2023-04-15T01:18:56;29.20;42.30
21275;DHT22;36472;52.170;20.884;2023-04-15T01:21:25;29.00;42.60
21275;DHT22;36472;52.170;20.884;2023-04-15T01:23:54;29.00;43.30
21275;DHT22;36472;52.170;20.884;2023-04-15T01:26:26;29.00;43.20
21275;DHT22;36472;52.170;20.884;2023-04-15T01:28:55;29.10;43.40
21275;DHT22;36472;52.170;20.884;2023-04-15T01:31:24;29.00;43.10
21275;DHT22;36472;52.170;20.884;2023-04-15T01:33:53;29.10;43.30
21275;DHT22;36472;52.170;20.884;2023-04-15T01:36:41;29.10;43.40
21275;DHT22;36472;52.170;20.884;2023-04-15T01:39:10;29.10;43.50
21275;DHT22;36472;52.170;20.884;2023-04-15T01:41:40;29.10;43.30
21275;DHT22;36472;52.170;20.884;2023-04-15T01:44:11;29.20;43.60
21275;DHT22;36472;52.170;20.884;2023-04-15T01:46:40;29.20;43.80
21275;DHT22;36472;52.170;20.884;2023-04-15T01:49:11;29.20;43.90
21275;DHT22;36472;52.170;20.884;2023-04-15T01:51:41;29.20;44.00
21275;DHT22;36472;52.170;20.884;2023-04-15T01:54:11;29.20;43.90
21275;DHT22;36472;52.170;20.884;2023-04-15T01:56:42;29.20;44.00
21275;DHT22;36472;52.170;20.884;2023-04-15T01:59:12;29.20;44.10
21275;DHT22;36472;52.170;20.884;2023-04-15T02:01:42;29.10;44.50
21275;DHT22;36472;52.170;20.884;2023-04-15T02:04:14;29.10;44.40
21275;DHT22;36472;52.170;20.884;2023-04-15T02:06:45;29.10;44.50
21275;DHT22;36472;52.170;20.884;2023-04-15T02:09:15;29.10;44.60
21275;DHT22;36472;52.170;20.884;2023-04-15T02:11:47;29.10;44.70
21275;DHT22;36472;52.170;20.884;2023-04-15T02:14:18;29.10;44.80
21275;DHT22;36472;52.170;20.884;2023-04-15T02:16:48;28.90;44.70
21275;DHT22;36472;52.170;20.884;2023-04-15T02:19:19;28.90;44.80
21275;DHT22;36472;52.170;20.884;2023-04-15T02:21:49;29.00;44.80
21275;DHT22;36472;52.170;20.884;2023-04-15T02:24:19;29.00;44.60
21275;DHT22;36472;52.170;20.884;2023-04-15T02:26:51;29.00;44.70
21275;DHT22;36472;52.170;20.884;2023-04-15T02:29:23;29.00;44.80
21275;DHT22;36472;52.170;20.884;2023-04-15T02:31:53;29.00;44.80
21275;DHT22;36472;52.170;20.884;2023-04-15T02:34:23;29.00;44.70
21275;DHT22;36472;52.170;20.884;2023-04-15T02:36:57;28.90;45.00
21275;DHT22;36472;52.170;20.884;2023-04-15T02:39:28;28.90;45.20
21275;DHT22;36472;52.170;20.884;2023-04-15T02:41:59;28.90;45.00
21275;DHT22;36472;52.170;20.884;2023-04-15T02:44:30;28.90;45.00
21275;DHT22;36472;52.170;20.884;2023-04-15T02:47:03;28.90;45.10
21275;DHT22;36472;52.170;20.884;2023-04-15T02:49:34;29.00;45.20
21275;DHT22;36472;52.170;20.884;2023-04-15T02:52:05;29.00;44.90
21275;DHT22;36472;52.170;20.884;2023-04-15T02:54:36;29.00;44.90
21275;DHT22;36472;52.170;20.884;2023-04-15T02:57:07;29.00;44.80
21275;DHT22;36472;52.170;20.884;2023-04-15T02:59:39;29.00;44.80
21275;DHT22;36472;52.170;20.884;2023-04-15T03:02:40;29.00;44.80
21275;DHT22;36472;52.170;20.884;2023-04-15T03:05:11;29.00;44.80
21275;DHT22;36472;52.170;20.884;2023-04-15T03:07:51;29.00;44.70
21275;DHT22;36472;52.170;20.884;2023-04-15T03:10:22;28.90;44.80
21275;DHT22;36472;52.170;20.884;2023-04-15T03:12:53;28.90;44.80
21275;DHT22;36472;52.170;20.884;2023-04-15T03:15:25;28.90;44.80
21275;DHT22;36472;52.170;20.884;2023-04-15T03:17:55;28.90;44.90
21275;DHT22;36472;52.170;20.884;2023-04-15T03:20:26;28.90;44.90
21275;DHT22;36472;52.170;20.884;2023-04-15T03:22:56;28.80;45.00
21275;DHT22;36472;52.170;20.884;2023-04-15T03:25:26;28.70;45.10
21275;DHT22;36472;52.170;20.884;2023-04-15T03:27:59;28.70;45.10
21275;DHT22;36472;52.170;20.884;2023-04-15T03:30:29;28.80;45.20
21275;DHT22;36472;52.170;20.884;2023-04-15T03:32:59;28.80;44.90
21275;DHT22;36472;52.170;20.884;2023-04-15T03:35:30;28.80;44.90
21275;DHT22;36472;52.170;20.884;2023-04-15T03:38:00;28.80;45.00
21275;DHT22;36472;52.170;20.884;2023-04-15T03:40:30;28.90;44.90
21275;DHT22;36472;52.170;20.884;2023-04-15T03:43:01;28.90;44.90
21275;DHT22;36472;52.170;20.884;2023-04-15T03:45:32;28.90;44.80
21275;DHT22;36472;52.170;20.884;2023-04-15T03:48:02;28.90;45.00
21275;DHT22;36472;52.170;20.884;2023-04-15T03:50:45;28.90;44.80
21275;DHT22;36472;52.170;20.884;2023-04-15T03:53:15;28.90;44.80
21275;DHT22;36472;52.170;20.884;2023-04-15T03:55:49;28.90;44.80
21275;DHT22;36472;52.170;20.884;2023-04-15T03:58:20;28.90;44.80
21275;DHT22;36472;52.170;20.884;2023-04-15T04:00:50;28.90;44.70
21275;DHT22;36472;52.170;20.884;2023-04-15T04:03:20;28.90;44.80
21275;DHT22;36472;52.170;20.884;2023-04-15T04:05:51;28.80;44.70
21275;DHT22;36472;52.170;20.884;2023-04-15T04:08:20;28.90;45.00
21275;DHT22;36472;52.170;20.884;2023-04-15T04:10:51;29.00;44.90
21275;DHT22;36472;52.170;20.884;2023-04-15T04:13:22;29.00;44.90
21275;DHT22;36472;52.170;20.884;2023-04-15T04:15:52;29.00;44.90
21275;DHT22;36472;52.170;20.884;2023-04-15T04:18:22;28.90;44.90
21275;DHT22;36472;52.170;20.884;2023-04-15T04:20:53;28.90;45.20
21275;DHT22;36472;52.170;20.884;2023-04-15T04:23:23;28.80;44.90
21275;DHT22;36472;52.170;20.884;2023-04-15T04:25:54;28.90;45.50
21275;DHT22;36472;52.170;20.884;2023-04-15T04:28:25;28.70;45.30
21275;DHT22;36472;52.170;20.884;2023-04-15T04:30:55;28.60;45.20
21275;DHT22;36472;52.170;20.884;2023-04-15T04:33:25;28.30;45.40
21275;DHT22;36472;52.170;20.884;2023-04-15T04:35:55;28.50;46.20
21275;DHT22;36472;52.170;20.884;2023-04-15T04:38:25;28.60;45.90
21275;DHT22;36472;52.170;20.884;2023-04-15T04:40:56;28.60;45.80
21275;DHT22;36472;52.170;20.884;2023-04-15T04:43:27;28.70;45.70
21275;DHT22;36472;52.170;20.884;2023-04-15T04:45:58;28.70;45.60
21275;DHT22;36472;52.170;20.884;2023-04-15T04:48:28;28.70;45.60
21275;DHT22;36472;52.170;20.884;2023-04-15T04:50:58;28.70;45.70
21275;DHT22;36472;52.170;20.884;2023-04-15T04:53:28;28.70;45.60
21275;DHT22;36472;52.170;20.884;2023-04-15T04:55:58;28.70;45.40
21275;DHT22;36472;52.170;20.884;2023-04-15T04:58:30;28.60;45.30
21275;DHT22;36472;52.170;20.884;2023-04-15T05:01:00;28.50;45.40
21275;DHT22;36472;52.170;20.884;2023-04-15T05:03:30;28.50;45.70
21275;DHT22;36472;52.170;20.884;2023-04-15T05:06:01;28.50;45.50
21275;DHT22;36472;52.170;20.884;2023-04-15T05:08:33;28.40;45.60
21275;DHT22;36472;52.170;20.884;2023-04-15T05:11:04;28.50;46.00
21275;DHT22;36472;52.170;20.884;2023-04-15T05:13:36;28.50;45.50
21275;DHT22;36472;52.170;20.884;2023-04-15T05:16:06;28.50;45.60
21275;DHT22;36472;52.170;20.884;2023-04-15T05:18:36;28.50;45.50
21275;DHT22;36472;52.170;20.884;2023-04-15T05:21:07;28.40;45.40
21275;DHT22;36472;52.170;20.884;2023-04-15T05:23:37;28.30;45.80
21275;DHT22;36472;52.170;20.884;2023-04-15T05:26:07;28.30;45.80
21275;DHT22;36472;52.170;20.884;2023-04-15T05:28:38;28.40;46.20
21275;DHT22;36472;52.170;20.884;2023-04-15T05:31:09;28.40;46.10
21275;DHT22;36472;52.170;20.884;2023-04-15T05:33:39;28.60;46.00
21275;DHT22;36472;52.170;20.884;2023-04-15T05:36:09;28.70;46.00
21275;DHT22;36472;52.170;20.884;2023-04-15T05:38:39;28.70;45.70
21275;DHT22;36472;52.170;20.884;2023-04-15T05:41:10;28.50;45.80
21275;DHT22;36472;52.170;20.884;2023-04-15T05:43:41;28.70;45.90
21275;DHT22;36472;52.170;20.884;2023-04-15T05:46:11;28.80;45.80
21275;DHT22;36472;52.170;20.884;2023-04-15T05:48:41;28.80;45.70
21275;DHT22;36472;52.170;20.884;2023-04-15T05:51:12;28.90;45.80
21275;DHT22;36472;52.170;20.884;2023-04-15T05:53:42;28.80;45.60
21275;DHT22;36472;52.170;20.884;2023-04-15T05:56:13;28.80;45.60
21275;DHT22;36472;52.170;20.884;2023-04-15T05:58:45;28.80;45.50
21275;DHT22;36472;52.170;20.884;2023-04-15T06:01:15;28.70;45.50
21275;DHT22;36472;52.170;20.884;2023-04-15T06:03:45;28.70;45.80
21275;DHT22;36472;52.170;20.884;2023-04-15T06:06:16;28.70;45.90
21275;DHT22;36472;52.170;20.884;2023-04-15T06:08:46;28.60;45.70
21275;DHT22;36472;52.170;20.884;2023-04-15T06:11:16;28.70;46.10
21275;DHT22;36472;52.170;20.884;2023-04-15T06:13:48;28.80;45.90
21275;DHT22;36472;52.170;20.884;2023-04-15T06:16:18;28.80;45.80
21275;DHT22;36472;52.170;20.884;2023-04-15T06:18:48;28.90;46.00
21275;DHT22;36472;52.170;20.884;2023-04-15T06:21:18;28.90;45.80
21275;DHT22;36472;52.170;20.884;2023-04-15T06:23:48;28.80;45.90
21275;DHT22;36472;52.170;20.884;2023-04-15T06:26:18;28.80;45.70
21275;DHT22;36472;52.170;20.884;2023-04-15T06:28:50;28.80;45.70
21275;DHT22;36472;52.170;20.884;2023-04-15T06:31:20;28.70;46.00
21275;DHT22;36472;52.170;20.884;2023-04-15T06:33:50;28.70;45.90
21275;DHT22;36472;52.170;20.884;2023-04-15T06:36:20;28.70;45.90
21275;DHT22;36472;52.170;20.884;2023-04-15T06:38:50;28.80;46.00
21275;DHT22;36472;52.170;20.884;2023-04-15T06:41:20;28.80;46.00
21275;DHT22;36472;52.170;20.884;2023-04-15T06:43:52;28.80;45.90
21275;DHT22;36472;52.170;20.884;2023-04-15T06:46:22;28.70;45.90
21275;DHT22;36472;52.170;20.884;2023-04-15T06:48:52;28.80;46.10
21275;DHT22;36472;52.170;20.884;2023-04-15T06:51:22;28.70;45.80
21275;DHT22;36472;52.170;20.884;2023-04-15T06:53:54;28.50;46.20
21275;DHT22;36472;52.170;20.884;2023-04-15T06:56:24;28.60;46.30
21275;DHT22;36472;52.170;20.884;2023-04-15T06:58:56;28.60;46.40
21275;DHT22;36472;52.170;20.884;2023-04-15T07:01:26;28.70;46.40
21275;DHT22;36472;52.170;20.884;2023-04-15T07:03:57;28.70;46.30
21275;DHT22;36472;52.170;20.884;2023-04-15T07:06:27;28.70;46.20
21275;DHT22;36472;52.170;20.884;2023-04-15T07:08:57;28.80;46.20
21275;DHT22;36472;52.170;20.884;2023-04-15T07:11:28;28.70;46.10
21275;DHT22;36472;52.170;20.884;2023-04-15T07:13:59;28.60;46.20
21275;DHT22;36472;52.170;20.884;2023-04-15T07:16:29;28.70;46.20
21275;DHT22;36472;52.170;20.884;2023-04-15T07:19:00;28.60;46.30
21275;DHT22;36472;52.170;20.884;2023-04-15T07:21:31;28.60;46.20
21275;DHT22;36472;52.170;20.884;2023-04-15T07:24:00;28.60;46.30
21275;DHT22;36472;52.170;20.884;2023-04-15T07:26:31;28.70;47.30
21275;DHT22;36472;52.170;20.884;2023-04-15T07:29:02;28.60;46.30
21275;DHT22;36472;52.170;20.884;2023-04-15T07:31:32;28.60;46.40
21275;DHT22;36472;52.170;20.884;2023-04-15T07:34:05;28.60;46.50
21275;DHT22;36472;52.170;20.884;2023-04-15T07:36:35;28.70;46.60
21275;DHT22;36472;52.170;20.884;2023-04-15T07:39:05;28.80;46.60
21275;DHT22;36472;52.170;20.884;2023-04-15T07:41:35;28.70;46.30
21275;DHT22;36472;52.170;20.884;2023-04-15T07:44:07;28.80;46.70
21275;DHT22;36472;52.170;20.884;2023-04-15T07:46:37;28.70;46.50
21275;DHT22;36472;52.170;20.884;2023-04-15T07:49:08;28.80;46.60
21275;DHT22;36472;52.170;20.884;2023-04-15T07:51:38;28.90;46.70
21275;DHT22;36472;52.170;20.884;2023-04-15T07:54:08;28.90;46.70
21275;DHT22;36472;52.170;20.884;2023-04-15T07:56:38;28.90;46.70
21275;DHT22;36472;52.170;20.884;2023-04-15T07:59:10;28.90;46.30
21275;DHT22;36472;52.170;20.884;2023-04-15T08:01:40;28.80;46.50
21275;DHT22;36472;52.170;20.884;2023-04-15T08:04:11;28.80;46.30
21275;DHT22;36472;52.170;20.884;2023-04-15T08:06:42;28.90;46.70
21275;DHT22;36472;52.170;20.884;2023-04-15T08:09:12;28.90;46.60
21275;DHT22;36472;52.170;20.884;2023-04-15T08:11:42;28.80;46.50
21275;DHT22;36472;52.170;20.884;2023-04-15T08:14:14;28.80;46.40
21275;DHT22;36472;52.170;20.884;2023-04-15T08:16:44;28.80;46.50
21275;DHT22;36472;52.170;20.884;2023-04-15T08:19:14;28.70;46.50
21275;DHT22;36472;52.170;20.884;2023-04-15T08:21:44;28.60;46.70
21275;DHT22;36472;52.170;20.884;2023-04-15T08:24:14;28.60;46.80
21275;DHT22;36472;52.170;20.884;2023-04-15T08:26:44;28.70;46.80
21275;DHT22;36472;52.170;20.884;2023-04-15T08:29:16;28.70;46.90
21275;DHT22;36472;52.170;20.884;2023-04-15T08:31:47;28.80;47.00
21275;DHT22;36472;52.170;20.884;2023-04-15T08:34:17;28.80;47.00
21275;DHT22;36472;52.170;20.884;2023-04-15T08:36:47;28.80;46.60
21275;DHT22;36472;52.170;20.884;2023-04-15T08:39:17;28.80;46.70
21275;DHT22;36472;52.170;20.884;2023-04-15T08:41:55;28.90;47.00
21275;DHT22;36472;52.170;20.884;2023-04-15T08:44:33;28.90;47.00
21275;DHT22;36472;52.170;20.884;2023-04-15T08:47:07;28.80;46.90
21275;DHT22;36472;52.170;20.884;2023-04-15T08:49:39;28.80;46.90
21275;DHT22;36472;52.170;20.884;2023-04-15T08:52:09;28.80;47.20
21275;DHT22;36472;52.170;20.884;2023-04-15T08:54:40;28.90;47.20
21275;DHT22;36472;52.170;20.884;2023-04-15T08:57:11;28.80;46.80
21275;DHT22;36472;52.170;20.884;2023-04-15T08:59:42;28.90;47.10
21275;DHT22;36472;52.170;20.884;2023-04-15T09:02:13;28.90;47.10
21275;DHT22;36472;52.170;20.884;2023-04-15T09:04:44;28.90;46.90
21275;DHT22;36472;52.170;20.884;2023-04-15T09:07:14;29.00;47.20
21275;DHT22;36472;52.170;20.884;2023-04-15T09:09:44;29.00;47.20
21275;DHT22;36472;52.170;20.884;2023-04-15T09:12:15;28.80;46.70
21275;DHT22;36472;52.170;20.884;2023-04-15T09:14:46;28.80;46.90
21275;DHT22;36472;52.170;20.884;2023-04-15T09:17:19;28.80;47.00
21275;DHT22;36472;52.170;20.884;2023-04-15T09:19:52;28.90;47.10
21275;DHT22;36472;52.170;20.884;2023-04-15T09:22:37;28.90;47.00
21275;DHT22;36472;52.170;20.884;2023-04-15T09:25:26;29.00;47.20
21275;DHT22;36472;52.170;20.884;2023-04-15T09:27:59;29.00;46.90
21275;DHT22;36472;52.170;20.884;2023-04-15T09:30:31;29.00;47.10
21275;DHT22;36472;52.170;20.884;2023-04-15T09:33:03;29.00;47.10
21275;DHT22;36472;52.170;20.884;2023-04-15T09:35:36;29.00;47.00
21275;DHT22;36472;52.170;20.884;2023-04-15T09:38:08;29.10;47.30
21275;DHT22;36472;52.170;20.884;2023-04-15T09:40:40;29.10;47.20
21275;DHT22;36472;52.170;20.884;2023-04-15T09:43:10;29.00;47.00
21275;DHT22;36472;52.170;20.884;2023-04-15T09:45:47;29.00;46.90
21275;DHT22;36472;52.170;20.884;2023-04-15T09:48:19;29.00;47.30
21275;DHT22;36472;52.170;20.884;2023-04-15T09:50:50;29.00;47.30
21275;DHT22;36472;52.170;20.884;2023-04-15T09:53:22;29.10;47.50
21275;DHT22;36472;52.170;20.884;2023-04-15T09:55:54;29.00;47.20
21275;DHT22;36472;52.170;20.884;2023-04-15T09:58:27;29.10;47.40
21275;DHT22;36472;52.170;20.884;2023-04-15T10:01:02;29.00;47.20
21275;DHT22;36472;52.170;20.884;2023-04-15T10:03:34;29.10;47.30
21275;DHT22;36472;52.170;20.884;2023-04-15T10:06:05;29.10;47.40
21275;DHT22;36472;52.170;20.884;2023-04-15T10:08:36;29.10;47.30
21275;DHT22;36472;52.170;20.884;2023-04-15T10:11:07;29.10;47.40
21275;DHT22;36472;52.170;20.884;2023-04-15T10:13:38;29.20;47.20
21275;DHT22;36472;52.170;20.884;2023-04-15T10:16:11;29.10;47.20
21275;DHT22;36472;52.170;20.884;2023-04-15T10:18:45;29.20;47.30
21275;DHT22;36472;52.170;20.884;2023-04-15T10:21:17;29.20;47.80
21275;DHT22;36472;52.170;20.884;2023-04-15T10:23:49;29.20;47.50
21275;DHT22;36472;52.170;20.884;2023-04-15T10:26:20;29.30;47.80
21275;DHT22;36472;52.170;20.884;2023-04-15T10:28:51;29.40;47.70
21275;DHT22;36472;52.170;20.884;2023-04-15T10:31:23;29.40;47.80
21275;DHT22;36472;52.170;20.884;2023-04-15T10:33:54;29.50;47.70
21275;DHT22;36472;52.170;20.884;2023-04-15T10:36:27;29.40;47.20
21275;DHT22;36472;52.170;20.884;2023-04-15T10:38:57;29.50;47.30
21275;DHT22;36472;52.170;20.884;2023-04-15T10:41:28;29.50;47.30
21275;DHT22;36472;52.170;20.884;2023-04-15T10:44:00;29.60;46.90
21275;DHT22;36472;52.170;20.884;2023-04-15T10:46:38;29.60;46.90
21275;DHT22;36472;52.170;20.884;2023-04-15T10:49:11;29.60;47.00
21275;DHT22;36472;52.170;20.884;2023-04-15T10:51:43;29.60;47.20
21275;DHT22;36472;52.170;20.884;2023-04-15T10:54:16;29.60;47.30
21275;DHT22;36472;52.170;20.884;2023-04-15T10:57:07;29.50;47.00
21275;DHT22;36472;52.170;20.884;2023-04-15T11:00:01;29.50;47.10
21275;DHT22;36472;52.170;20.884;2023-04-15T11:02:44;29.50;47.50
21275;DHT22;36472;52.170;20.884;2023-04-15T11:05:18;29.60;47.20
21275;DHT22;36472;52.170;20.884;2023-04-15T11:07:51;29.60;47.00
21275;DHT22;36472;52.170;20.884;2023-04-15T11:10:50;29.60;47.10
21275;DHT22;36472;52.170;20.884;2023-04-15T11:13:27;29.60;47.00
21275;DHT22;36472;52.170;20.884;2023-04-15T11:16:00;29.60;46.90
21275;DHT22;36472;52.170;20.884;2023-04-15T11:18:33;29.60;46.90
21275;DHT22;36472;52.170;20.884;2023-04-15T11:21:05;29.60;47.20
21275;DHT22;36472;52.170;20.884;2023-04-15T11:23:38;29.70;47.20
21275;DHT22;36472;52.170;20.884;2023-04-15T11:26:12;29.70;47.00
21275;DHT22;36472;52.170;20.884;2023-04-15T11:28:43;29.70;46.50
21275;DHT22;36472;52.170;20.884;2023-04-15T11:31:16;29.70;47.00
21275;DHT22;36472;52.170;20.884;2023-04-15T11:33:55;29.80;46.80
21275;DHT22;36472;52.170;20.884;2023-04-15T11:36:28;29.90;47.30
21275;DHT22;36472;52.170;20.884;2023-04-15T11:38:59;29.90;46.70
21275;DHT22;36472;52.170;20.884;2023-04-15T11:41:30;29.90;46.60
21275;DHT22;36472;52.170;20.884;2023-04-15T11:44:00;30.00;46.60
21275;DHT22;36472;52.170;20.884;2023-04-15T11:46:30;29.90;46.40
21275;DHT22;36472;52.170;20.884;2023-04-15T11:49:02;29.90;46.70
21275;DHT22;36472;52.170;20.884;2023-04-15T11:51:33;29.90;46.40
21275;DHT22;36472;52.170;20.884;2023-04-15T11:54:02;29.90;46.60
21275;DHT22;36472;52.170;20.884;2023-04-15T11:56:32;30.00;47.00
21275;DHT22;36472;52.170;20.884;2023-04-15T11:59:01;30.10;46.80
21275;DHT22;36472;52.170;20.884;2023-04-15T12:01:31;30.20;46.70
21275;DHT22;36472;52.170;20.884;2023-04-15T12:04:10;30.20;45.80
21275;DHT22;36472;52.170;20.884;2023-04-15T12:06:40;30.20;45.60
21275;DHT22;36472;52.170;20.884;2023-04-15T12:09:10;30.10;45.40
21275;DHT22;36472;52.170;20.884;2023-04-15T12:11:42;30.10;45.80
21275;DHT22;36472;52.170;20.884;2023-04-15T12:14:21;30.20;46.30
21275;DHT22;36472;52.170;20.884;2023-04-15T12:16:54;30.20;45.90
21275;DHT22;36472;52.170;20.884;2023-04-15T12:19:28;30.10;45.20
21275;DHT22;36472;52.170;20.884;2023-04-15T12:22:00;30.10;45.30
21275;DHT22;36472;52.170;20.884;2023-04-15T12:24:30;30.10;45.40
21275;DHT22;36472;52.170;20.884;2023-04-15T12:27:04;30.20;46.00
21275;DHT22;36472;52.170;20.884;2023-04-15T12:29:35;30.20;46.40
21275;DHT22;36472;52.170;20.884;2023-04-15T12:32:07;30.20;46.50
21275;DHT22;36472;52.170;20.884;2023-04-15T12:34:39;30.20;46.00
21275;DHT22;36472;52.170;20.884;2023-04-15T12:37:11;30.30;46.20
21275;DHT22;36472;52.170;20.884;2023-04-15T12:39:41;30.30;45.80
21275;DHT22;36472;52.170;20.884;2023-04-15T12:42:11;30.40;45.10
21275;DHT22;36472;52.170;20.884;2023-04-15T12:44:40;30.40;45.50
21275;DHT22;36472;52.170;20.884;2023-04-15T12:47:10;30.50;45.40
21275;DHT22;36472;52.170;20.884;2023-04-15T12:49:42;30.60;45.20
21275;DHT22;36472;52.170;20.884;2023-04-15T12:52:12;30.60;45.90
21275;DHT22;36472;52.170;20.884;2023-04-15T12:54:41;30.70;45.90
21275;DHT22;36472;52.170;20.884;2023-04-15T12:57:10;30.70;44.50
21275;DHT22;36472;52.170;20.884;2023-04-15T12:59:38;30.70;44.70
21275;DHT22;36472;52.170;20.884;2023-04-15T13:02:08;30.60;44.40
21275;DHT22;36472;52.170;20.884;2023-04-15T13:04:36;30.70;44.40
21275;DHT22;36472;52.170;20.884;2023-04-15T13:07:07;30.70;44.60
21275;DHT22;36472;52.170;20.884;2023-04-15T13:09:35;30.70;44.80
21275;DHT22;36472;52.170;20.884;2023-04-15T13:12:04;30.70;44.70
21275;DHT22;36472;52.170;20.884;2023-04-15T13:14:33;30.70;45.30
21275;DHT22;36472;52.170;20.884;2023-04-15T13:17:02;30.60;44.60
21275;DHT22;36472;52.170;20.884;2023-04-15T13:19:36;30.60;44.40
21275;DHT22;36472;52.170;20.884;2023-04-15T13:22:07;30.60;44.40
21275;DHT22;36472;52.170;20.884;2023-04-15T13:24:36;30.70;44.40
21275;DHT22;36472;52.170;20.884;2023-04-15T13:27:07;30.70;43.40
21275;DHT22;36472;52.170;20.884;2023-04-15T13:29:36;30.70;44.00
21275;DHT22;36472;52.170;20.884;2023-04-15T13:32:05;30.70;43.30
21275;DHT22;36472;52.170;20.884;2023-04-15T13:34:34;30.80;42.70
21275;DHT22;36472;52.170;20.884;2023-04-15T13:37:07;30.70;42.40
21275;DHT22;36472;52.170;20.884;2023-04-15T13:39:36;30.80;42.10
21275;DHT22;36472;52.170;20.884;2023-04-15T13:42:05;30.70;42.60
21275;DHT22;36472;52.170;20.884;2023-04-15T13:44:34;30.70;42.10
21275;DHT22;36472;52.170;20.884;2023-04-15T13:47:03;30.70;42.50
21275;DHT22;36472;52.170;20.884;2023-04-15T13:49:32;30.70;43.30
21275;DHT22;36472;52.170;20.884;2023-04-15T13:52:01;30.60;42.80
21275;DHT22;36472;52.170;20.884;2023-04-15T13:54:31;30.60;42.00
21275;DHT22;36472;52.170;20.884;2023-04-15T13:57:04;30.60;43.10
21275;DHT22;36472;52.170;20.884;2023-04-15T13:59:33;30.70;42.90
21275;DHT22;36472;52.170;20.884;2023-04-15T14:02:02;30.60;42.20
21275;DHT22;36472;52.170;20.884;2023-04-15T14:04:32;30.40;42.50
21275;DHT22;36472;52.170;20.884;2023-04-15T14:07:01;30.50;42.90
21275;DHT22;36472;52.170;20.884;2023-04-15T14:09:33;30.50;43.20
21275;DHT22;36472;52.170;20.884;2023-04-15T14:12:03;30.50;43.30
21275;DHT22;36472;52.170;20.884;2023-04-15T14:14:32;30.60;43.30
21275;DHT22;36472;52.170;20.884;2023-04-15T14:17:02;30.50;43.80
21275;DHT22;36472;52.170;20.884;2023-04-15T14:19:32;30.50;43.30
21275;DHT22;36472;52.170;20.884;2023-04-15T14:22:02;30.50;43.40
21275;DHT22;36472;52.170;20.884;2023-04-15T14:24:32;30.40;43.30
21275;DHT22;36472;52.170;20.884;2023-04-15T14:27:01;30.40;43.60
21275;DHT22;36472;52.170;20.884;2023-04-15T14:29:30;30.60;43.50
21275;DHT22;36472;52.170;20.884;2023-04-15T14:31:59;30.60;43.60
21275;DHT22;36472;52.170;20.884;2023-04-15T14:34:38;30.60;43.30
21275;DHT22;36472;52.170;20.884;2023-04-15T14:37:07;30.60;43.20
21275;DHT22;36472;52.170;20.884;2023-04-15T14:39:37;30.60;43.00
21275;DHT22;36472;52.170;20.884;2023-04-15T14:42:06;30.60;42.70
21275;DHT22;36472;52.170;20.884;2023-04-15T14:44:35;30.70;43.30
21275;DHT22;36472;52.170;20.884;2023-04-15T14:47:04;30.80;43.20
21275;DHT22;36472;52.170;20.884;2023-04-15T14:49:33;30.80;42.60
21275;DHT22;36472;52.170;20.884;2023-04-15T14:52:02;30.80;42.90
21275;DHT22;36472;52.170;20.884;2023-04-15T14:54:31;30.80;42.30
21275;DHT22;36472;52.170;20.884;2023-04-15T14:57:02;30.90;42.80
21275;DHT22;36472;52.170;20.884;2023-04-15T14:59:30;30.90;42.20
21275;DHT22;36472;52.170;20.884;2023-04-15T15:01:59;30.80;42.00
21275;DHT22;36472;52.170;20.884;2023-04-15T15:04:28;30.80;42.10
21275;DHT22;36472;52.170;20.884;2023-04-15T15:06:59;30.80;42.50
21275;DHT22;36472;52.170;20.884;2023-04-15T15:09:28;30.80;42.50
21275;DHT22;36472;52.170;20.884;2023-04-15T15:11:59;30.70;42.30
21275;DHT22;36472;52.170;20.884;2023-04-15T15:14:30;30.70;43.00
21275;DHT22;36472;52.170;20.884;2023-04-15T15:16:59;30.70;42.90
21275;DHT22;36472;52.170;20.884;2023-04-15T15:19:28;30.70;42.80
21275;DHT22;36472;52.170;20.884;2023-04-15T15:21:57;30.80;42.90
21275;DHT22;36472;52.170;20.884;2023-04-15T15:24:26;30.60;42.40
21275;DHT22;36472;52.170;20.884;2023-04-15T15:26:55;30.60;42.60
21275;DHT22;36472;52.170;20.884;2023-04-15T15:29:24;30.30;42.80
21275;DHT22;36472;52.170;20.884;2023-04-15T15:31:54;30.40;42.80
21275;DHT22;36472;52.170;20.884;2023-04-15T15:34:23;30.40;42.40
21275;DHT22;36472;52.170;20.884;2023-04-15T15:36:53;30.40;42.30
21275;DHT22;36472;52.170;20.884;2023-04-15T15:39:23;30.30;42.00